Time;durP1;ratioP1;P1;durP2;ratioP2;P2;SDS_P1;SDS_P2;PMS_P1;PMS_P2;Temp;Humidity;BMP_temperature;BMP_pressure;BME280_temperature;BME280_humidity;BME280_pressure;Samples;Min_cycle;Max_cycle;Signal;HPM_P1;HPM_P2
2022/05/28 00:01:06;;;;;;;;;;;;;;;13.30;51.31;101714.09;5089912;28;20339;-79
2022/05/28 00:03:32;;;;;;;;;;;;;;;13.33;50.41;101711.44;5070384;28;20561;-79
2022/05/28 00:05:58;;;;;;;;;;;;;;;12.99;52.17;101709.38;5070661;28;19933;-79
2022/05/28 00:08:24;;;;;;;;;;;;;;;13.38;50.23;101707.88;5087703;28;20642;-79
2022/05/28 00:10:50;;;;;;;;;;;;;;;13.16;50.81;101707.41;5089077;28;19931;-79
2022/05/28 00:13:15;;;;;;;;;;;;;;;13.21;50.54;101709.91;5086875;28;19928;-79
2022/05/28 00:15:43;;;;;;;;;;;;;;;12.97;49.87;101708.56;5089930;28;19931;-79
2022/05/28 00:18:11;;;;;;;;;;;;;;;13.15;49.74;101712.63;5088110;28;19939;-79
2022/05/28 00:20:37;;;;;;;;;;;;;;;12.88;50.22;101713.06;5088764;28;19920;-79
2022/05/28 00:23:02;;;;;;;;;;;;;;;12.73;50.99;101710.69;5091187;28;20372;-79
2022/05/28 00:25:28;;;;;;;;;;;;;;;12.94;50.10;101710.34;5088304;28;19970;-76
2022/05/28 00:27:53;;;;;;;;;;;;;;;13.03;51.25;101707.59;5087824;28;20059;-76
2022/05/28 00:30:19;;;;;;;;;;;;;;;12.91;49.95;101705.19;5084043;28;19920;-76
2022/05/28 00:32:45;;;;;;;;;;;;;;;13.04;50.14;101707.59;5090234;28;20495;-76
2022/05/28 00:35:12;;;;;;;;;;;;;;;12.89;50.94;101709.56;5087942;28;19943;-76
2022/05/28 00:37:37;;;;;;;;;;;;;;;12.98;51.01;101709.44;5079216;28;20003;-76
2022/05/28 00:40:04;;;;;;;;;;;;;;;13.05;51.15;101698.84;5087709;28;20018;-75
2022/05/28 00:42:30;;;;;;;;;;;;;;;12.98;51.13;101697.25;5085227;28;20337;-76
2022/05/28 00:44:55;;;;;;;;;;;;;;;12.73;52.06;101697.66;5087508;28;20005;-75
2022/05/28 00:47:21;;;;;;;;;;;;;;;12.97;51.05;101695.53;5086125;28;19983;-75
2022/05/28 00:49:46;;;;;;;;;;;;;;;12.90;51.27;101693.06;5082433;28;20019;-76
2022/05/28 00:52:13;;;;;;;;;;;;;;;13.02;50.79;101687.59;5083699;28;19928;-76
2022/05/28 00:54:43;;;;;;;;;;;;;;;12.97;51.13;101685.09;5088671;28;19920;-76
2022/05/28 00:57:09;;;;;;;;;;;;;;;12.84;51.07;101677.50;5085618;28;19919;-76
2022/05/28 00:59:35;;;;;;;;;;;;;;;12.84;52.26;101680.09;5083154;28;19908;-79
2022/05/28 01:02:04;;;;;;;;;;;;;;;12.78;51.89;101669.78;5084835;28;19924;-78
2022/05/28 01:04:44;;;;;;;;;;;;;;;12.77;52.11;101670.66;5084009;28;19955;-79
2022/05/28 01:07:16;;;;;;;;;;;;;;;12.82;52.35;101666.22;5082572;28;19920;-78
2022/05/28 01:09:44;;;;;;;;;;;;;;;12.95;52.20;101679.06;5083412;28;19928;-78
2022/05/28 01:12:20;;;;;;;;;;;;;;;12.82;51.15;101681.84;5089024;28;19927;-78
2022/05/28 01:14:52;;;;;;;;;;;;;;;12.75;50.76;101672.44;5090183;28;20369;-78
2022/05/28 01:17:21;;;;;;;;;;;;;;;12.73;51.10;101685.47;5087035;28;19924;-78
2022/05/28 01:20:06;;;;;;;;;;;;;;;12.36;51.10;101672.09;5086166;28;19923;-76
2022/05/28 01:22:32;;;;;;;;;;;;;;;12.78;50.21;101672.38;5086895;28;19928;-75
2022/05/28 01:25:07;;;;;;;;;;;;;;;12.84;50.56;101673.13;5089258;28;19924;-75
2022/05/28 01:27:38;;;;;;;;;;;;;;;12.94;50.98;101664.28;5088820;28;20305;-76
2022/05/28 01:30:05;;;;;;;;;;;;;;;12.84;51.09;101670.50;5085534;28;19922;-75
2022/05/28 01:32:32;;;;;;;;;;;;;;;12.85;50.90;101655.72;5089063;28;19924;-76
2022/05/28 01:34:58;;;;;;;;;;;;;;;12.66;51.37;101652.59;5087125;28;19948;-75
2022/05/28 01:37:24;;;;;;;;;;;;;;;12.72;51.15;101642.03;5091170;28;19931;-75
2022/05/28 01:39:50;;;;;;;;;;;;;;;12.83;50.83;101642.75;5088173;28;19920;-76
2022/05/28 01:42:16;;;;;;;;;;;;;;;12.54;52.27;101643.19;5071966;28;20466;-76
2022/05/28 01:44:43;;;;;;;;;;;;;;;12.78;50.64;101636.72;5089026;28;19912;-76
2022/05/28 01:47:10;;;;;;;;;;;;;;;12.64;51.85;101639.56;5093461;28;19931;-76
2022/05/28 01:49:36;;;;;;;;;;;;;;;12.74;50.53;101636.81;5094400;28;19946;-75
2022/05/28 01:52:02;;;;;;;;;;;;;;;12.74;50.85;101639.41;5087638;28;20401;-76
2022/05/28 01:54:29;;;;;;;;;;;;;;;12.92;50.44;101626.06;5086679;28;20651;-76
2022/05/28 01:56:55;;;;;;;;;;;;;;;12.80;50.64;101627.16;5084831;28;20512;-75
2022/05/28 01:59:25;;;;;;;;;;;;;;;12.86;51.13;101624.44;5064066;28;19985;-76
2022/05/28 02:01:51;;;;;;;;;;;;;;;12.78;51.09;101633.28;5089671;28;19924;-76
2022/05/28 02:04:17;;;;;;;;;;;;;;;12.68;50.97;101629.94;5093199;28;19930;-75
2022/05/28 02:06:42;;;;;;;;;;;;;;;12.80;50.62;101631.50;5087572;28;19924;-75
2022/05/28 02:09:10;;;;;;;;;;;;;;;12.48;52.17;101629.38;5065829;28;19919;-76
2022/05/28 02:11:48;;;;;;;;;;;;;;;12.48;51.59;101626.75;5089607;28;19908;-76
2022/05/28 02:14:13;;;;;;;;;;;;;;;12.57;51.43;101626.66;5082371;28;20010;-76
2022/05/28 02:16:38;;;;;;;;;;;;;;;12.65;51.41;101628.25;5084675;28;20495;-76
2022/05/28 02:19:07;;;;;;;;;;;;;;;12.88;50.71;101617.44;5088944;28;19931;-76
2022/05/28 02:21:39;;;;;;;;;;;;;;;12.95;50.84;101631.25;5086336;28;19930;-76
2022/05/28 02:24:08;;;;;;;;;;;;;;;12.69;51.16;101623.00;5085705;28;20450;-75
2022/05/28 02:26:43;;;;;;;;;;;;;;;12.65;51.86;101628.25;5091035;28;19963;-76
2022/05/28 02:29:10;;;;;;;;;;;;;;;12.75;50.74;101625.50;5077045;28;19924;-75
2022/05/28 02:31:35;;;;;;;;;;;;;;;12.60;50.54;101624.84;5083667;28;19924;-76
2022/05/28 02:34:01;;;;;;;;;;;;;;;12.53;52.00;101627.56;5087539;28;20061;-75
2022/05/28 02:36:27;;;;;;;;;;;;;;;12.62;52.12;101630.03;5085024;28;19951;-75
2022/05/28 02:38:53;;;;;;;;;;;;;;;12.62;51.60;101624.81;5086989;28;19920;-75
2022/05/28 02:41:19;;;;;;;;;;;;;;;12.61;51.14;101618.75;5089628;28;19927;-76
2022/05/28 02:43:44;;;;;;;;;;;;;;;12.61;51.71;101625.69;5089385;28;19916;-75
2022/05/28 02:46:10;;;;;;;;;;;;;;;12.65;50.98;101611.75;5086982;28;19924;-75
2022/05/28 02:48:35;;;;;;;;;;;;;;;12.81;51.00;101614.97;5088051;28;19924;-76
2022/05/28 02:51:21;;;;;;;;;;;;;;;12.78;50.27;101607.19;5085862;28;20393;-75
2022/05/28 02:53:51;;;;;;;;;;;;;;;12.69;50.96;101604.75;5082658;28;20309;-79
2022/05/28 02:56:16;;;;;;;;;;;;;;;12.57;51.18;101604.03;5085609;28;19924;-79
2022/05/28 02:58:41;;;;;;;;;;;;;;;12.69;51.65;101609.97;5086333;28;19973;-79
2022/05/28 03:01:32;;;;;;;;;;;;;;;12.80;51.48;101605.41;5089997;28;19921;-79
2022/05/28 03:03:57;;;;;;;;;;;;;;;12.50;53.07;101597.19;5071342;28;19924;-79
2022/05/28 03:06:23;;;;;;;;;;;;;;;12.39;52.60;101598.25;5090245;28;20006;-79
2022/05/28 03:08:48;;;;;;;;;;;;;;;12.58;51.77;101607.50;5070599;28;20014;-79
2022/05/28 03:11:14;;;;;;;;;;;;;;;12.15;53.16;101612.47;5090620;28;19924;-79
2022/05/28 03:13:40;;;;;;;;;;;;;;;12.48;51.48;101611.13;5084879;28;19945;-79
2022/05/28 03:16:05;;;;;;;;;;;;;;;12.53;52.13;101617.16;5063163;28;19977;-79
2022/05/28 03:18:31;;;;;;;;;;;;;;;12.53;51.51;101610.19;5082884;28;20420;-79
2022/05/28 03:20:56;;;;;;;;;;;;;;;12.38;52.16;101618.22;5087149;28;19920;-79
2022/05/28 03:23:21;;;;;;;;;;;;;;;12.43;53.10;101615.53;5087394;28;20423;-79
2022/05/28 03:25:46;;;;;;;;;;;;;;;12.08;54.15;101623.84;5067056;28;19924;-78
2022/05/28 03:28:12;;;;;;;;;;;;;;;12.45;52.45;101614.63;5075370;28;19985;-78
2022/05/28 03:30:37;;;;;;;;;;;;;;;12.34;52.72;101621.75;5085892;28;20761;-76
2022/05/28 03:33:02;;;;;;;;;;;;;;;12.51;52.82;101618.91;5088069;28;19924;-75
2022/05/28 03:35:28;;;;;;;;;;;;;;;12.33;53.29;101617.44;5068747;28;20031;-76
2022/05/28 03:37:53;;;;;;;;;;;;;;;12.15;53.04;101612.47;5089882;28;20434;-76
2022/05/28 03:40:18;;;;;;;;;;;;;;;12.38;53.04;101618.22;5095474;28;19926;-75
2022/05/28 03:42:43;;;;;;;;;;;;;;;12.40;52.91;101606.00;5093961;28;19927;-75
2022/05/28 03:45:09;;;;;;;;;;;;;;;12.40;52.72;101610.34;5086544;28;19923;-76
2022/05/28 03:47:34;;;;;;;;;;;;;;;12.52;52.40;101615.38;5070048;28;20065;-78
2022/05/28 03:50:01;;;;;;;;;;;;;;;12.16;53.92;101616.78;5080611;28;19928;-78
2022/05/28 03:52:26;;;;;;;;;;;;;;;12.01;53.99;101624.81;5084221;28;20566;-79
2022/05/28 03:54:51;;;;;;;;;;;;;;;12.26;53.34;101617.53;5087174;28;19928;-79
2022/05/28 03:57:20;;;;;;;;;;;;;;;12.06;53.95;101623.03;5086648;28;19923;-79
2022/05/28 03:59:45;;;;;;;;;;;;;;;12.42;53.12;101617.25;5090902;28;19916;-79
2022/05/28 04:02:11;;;;;;;;;;;;;;;11.76;54.80;101613.00;5085064;28;20278;-79
2022/05/28 04:04:37;;;;;;;;;;;;;;;11.86;54.62;101618.06;5085631;28;19920;-79
2022/05/28 04:07:02;;;;;;;;;;;;;;;12.34;53.55;101616.53;5082701;28;20609;-79
2022/05/28 04:09:28;;;;;;;;;;;;;;;12.37;54.51;101623.44;5068308;28;19924;-79
2022/05/28 04:11:53;;;;;;;;;;;;;;;12.52;54.05;101620.59;5082758;28;19921;-79
2022/05/28 04:14:18;;;;;;;;;;;;;;;12.21;54.91;101627.16;5082745;28;19924;-79
2022/05/28 04:16:44;;;;;;;;;;;;;;;12.24;54.44;101616.69;5050409;28;19973;-75
2022/05/28 04:19:09;;;;;;;;;;;;;;;12.13;54.71;101623.81;5090174;28;19952;-75
2022/05/28 04:21:35;;;;;;;;;;;;;;;12.04;55.58;101627.38;5086241;28;19928;-75
2022/05/28 04:24:01;;;;;;;;;;;;;;;12.05;54.77;101624.75;5087878;28;19924;-76
2022/05/28 04:26:26;;;;;;;;;;;;;;;12.49;53.61;101623.25;5080174;28;19931;-76
2022/05/28 04:28:51;;;;;;;;;;;;;;;12.39;55.30;101619.09;5085752;28;20561;-75
2022/05/28 04:31:16;;;;;;;;;;;;;;;12.63;53.58;101618.75;5087157;28;19931;-75
2022/05/28 04:33:42;;;;;;;;;;;;;;;12.31;55.23;101623.53;5086022;28;19928;-79
2022/05/28 04:36:07;;;;;;;;;;;;;;;12.57;53.71;101624.06;5085862;28;19926;-76
2022/05/28 04:38:32;;;;;;;;;;;;;;;12.75;53.20;101630.72;5092406;28;22054;-75
2022/05/28 04:40:58;;;;;;;;;;;;;;;12.48;54.15;101627.59;5083896;28;19920;-76
2022/05/28 04:43:23;;;;;;;;;;;;;;;12.62;54.20;101630.03;5089232;28;20534;-78
2022/05/28 04:45:48;;;;;;;;;;;;;;;12.60;53.82;101624.84;5087026;28;19972;-79
2022/05/28 04:48:14;;;;;;;;;;;;;;;12.40;55.51;101634.69;5090872;28;20020;-79
2022/05/28 04:50:39;;;;;;;;;;;;;;;12.76;54.23;101629.81;5090951;28;19912;-79
2022/05/28 04:53:05;;;;;;;;;;;;;;;12.23;55.47;101631.47;5089178;28;19935;-79
2022/05/28 04:55:30;;;;;;;;;;;;;;;12.48;54.91;101631.97;5084224;28;20440;-79
2022/05/28 04:57:55;;;;;;;;;;;;;;;12.49;54.92;101636.28;5093698;28;19924;-79
2022/05/28 05:00:22;;;;;;;;;;;;;;;12.49;55.18;101628.47;5073358;28;19928;-79
2022/05/28 05:02:47;;;;;;;;;;;;;;;12.53;55.03;101636.25;5090900;28;19959;-79
2022/05/28 05:05:13;;;;;;;;;;;;;;;12.19;56.35;101644.53;5089351;28;19927;-79
2022/05/28 05:07:38;;;;;;;;;;;;;;;12.84;54.48;101636.63;5072141;28;20827;-79
2022/05/28 05:10:04;;;;;;;;;;;;;;;12.21;56.49;101640.19;5088434;28;19920;-79
2022/05/28 05:12:29;;;;;;;;;;;;;;;12.63;54.93;101637.81;5089064;28;19935;-79
2022/05/28 05:14:55;;;;;;;;;;;;;;;12.62;55.43;101637.88;5076752;28;19927;-79
2022/05/28 05:17:20;;;;;;;;;;;;;;;12.49;55.57;101639.75;5074677;28;19923;-79
2022/05/28 05:19:45;;;;;;;;;;;;;;;12.78;54.87;101639.31;5089465;28;19951;-79
2022/05/28 05:22:11;;;;;;;;;;;;;;;12.78;55.12;101647.16;5087783;28;19920;-79
2022/05/28 05:24:36;;;;;;;;;;;;;;;12.71;55.17;101645.53;5088195;28;19975;-75
2022/05/28 05:27:02;;;;;;;;;;;;;;;12.64;54.76;101644.78;5091116;28;19997;-75
2022/05/28 05:29:27;;;;;;;;;;;;;;;12.87;54.03;101651.38;5092167;28;19923;-76
2022/05/28 05:31:53;;;;;;;;;;;;;;;12.34;55.46;101650.41;5089057;28;19963;-76
2022/05/28 05:34:18;;;;;;;;;;;;;;;12.58;55.38;101657.91;5094451;28;19920;-76
2022/05/28 05:36:43;;;;;;;;;;;;;;;12.61;55.53;101662.19;5069885;28;19978;-76
2022/05/28 05:39:08;;;;;;;;;;;;;;;12.66;55.54;101660.41;5088976;28;19923;-76
2022/05/28 05:41:37;;;;;;;;;;;;;;;12.36;56.34;101659.06;5089445;28;19974;-78
2022/05/28 05:44:03;;;;;;;;;;;;;;;12.65;55.51;101656.06;5086223;28;20385;-79
2022/05/28 05:46:28;;;;;;;;;;;;;;;12.64;56.19;101664.75;5076638;28;19968;-79
2022/05/28 05:48:53;;;;;;;;;;;;;;;12.76;56.14;101664.56;5086951;28;19927;-79
2022/05/28 05:51:19;;;;;;;;;;;;;;;12.61;56.45;101659.59;5089721;28;19920;-78
2022/05/28 05:53:44;;;;;;;;;;;;;;;12.73;55.99;101664.63;5093404;28;19975;-79
2022/05/28 05:56:09;;;;;;;;;;;;;;;12.68;56.93;101661.22;5093879;28;20316;-79
2022/05/28 05:58:35;;;;;;;;;;;;;;;12.83;56.12;101661.00;5078149;28;19931;-79
2022/05/28 06:01:02;;;;;;;;;;;;;;;12.93;55.97;101664.28;5092474;28;19928;-79
2022/05/28 06:03:27;;;;;;;;;;;;;;;12.73;57.08;101661.16;5065085;28;19922;-79
2022/05/28 06:05:57;;;;;;;;;;;;;;;12.92;56.04;101655.63;5099731;28;19920;-78
2022/05/28 06:08:22;;;;;;;;;;;;;;;12.80;56.68;101665.38;5080014;28;19931;-78
2022/05/28 06:10:47;;;;;;;;;;;;;;;12.84;56.66;101664.47;5089357;28;19916;-79
2022/05/28 06:13:12;;;;;;;;;;;;;;;12.96;56.92;101667.72;5096505;28;19928;-79
2022/05/28 06:15:38;;;;;;;;;;;;;;;13.04;56.48;101665.84;5087491;28;19928;-78
2022/05/28 06:18:03;;;;;;;;;;;;;;;13.05;56.77;101664.09;5086931;28;19928;-79
2022/05/28 06:20:30;;;;;;;;;;;;;;;13.01;56.14;101662.44;5092245;28;20566;-79
2022/05/28 06:22:55;;;;;;;;;;;;;;;13.09;56.52;101664.03;5085088;28;20019;-79
2022/05/28 06:25:21;;;;;;;;;;;;;;;13.04;56.33;101667.59;5086523;28;20007;-80
2022/05/28 06:27:46;;;;;;;;;;;;;;;13.16;57.00;101656.97;5089092;28;19920;-79
2022/05/28 06:30:12;;;;;;;;;;;;;;;13.11;56.58;101662.25;5087398;28;19924;-79
2022/05/28 06:32:37;;;;;;;;;;;;;;;13.09;57.35;101668.38;5090468;28;20639;-79
2022/05/28 06:35:02;;;;;;;;;;;;;;;13.23;56.47;101663.78;5090862;28;19920;-79
2022/05/28 06:37:28;;;;;;;;;;;;;;;13.32;55.72;101662.75;5068643;28;19927;-79
2022/05/28 06:39:53;;;;;;;;;;;;;;;13.34;56.14;101666.22;5090157;28;19939;-79
2022/05/28 06:42:18;;;;;;;;;;;;;;;13.32;55.72;101671.44;5087165;28;19927;-79
2022/05/28 06:44:43;;;;;;;;;;;;;;;13.12;55.62;101657.88;5082962;28;20351;-79
2022/05/28 06:47:09;;;;;;;;;;;;;;;13.34;55.77;101658.38;5091287;28;19978;-79
2022/05/28 06:49:34;;;;;;;;;;;;;;;13.42;55.58;101652.13;5088292;28;20551;-79
2022/05/28 06:51:59;;;;;;;;;;;;;;;13.51;56.30;101666.75;5083167;28;19932;-79
2022/05/28 06:54:25;;;;;;;;;;;;;;;13.48;56.57;101661.59;5085927;28;19932;-79
2022/05/28 06:56:50;;;;;;;;;;;;;;;13.44;55.79;101657.31;5088613;28;20300;-79
2022/05/28 06:59:15;;;;;;;;;;;;;;;13.48;55.26;101657.22;5089509;28;20406;-79
2022/05/28 07:01:41;;;;;;;;;;;;;;;13.51;55.28;101657.19;5085521;28;19924;-79
2022/05/28 07:04:06;;;;;;;;;;;;;;;13.60;55.22;101653.53;5064490;28;19938;-79
2022/05/28 07:06:32;;;;;;;;;;;;;;;13.25;55.76;101666.38;5073749;28;19925;-78
2022/05/28 07:08:57;;;;;;;;;;;;;;;13.36;54.29;101654.84;5091189;28;20701;-75
2022/05/28 07:11:23;;;;;;;;;;;;;;;13.30;53.74;101670.63;5084477;28;19920;-79
2022/05/28 07:13:48;;;;;;;;;;;;;;;13.29;54.46;101666.28;5070994;28;19979;-75
2022/05/28 07:16:13;;;;;;;;;;;;;;;13.33;54.41;101667.94;5075041;28;19982;-75
2022/05/28 07:18:40;;;;;;;;;;;;;;;13.33;53.92;101670.56;5091888;28;20031;-75
2022/05/28 07:21:06;;;;;;;;;;;;;;;13.28;53.04;101674.16;5075598;28;20447;-75
2022/05/28 07:23:31;;;;;;;;;;;;;;;13.37;52.25;101668.75;5088652;28;19924;-75
2022/05/28 07:25:58;;;;;;;;;;;;;;;13.43;53.07;101664.28;5091518;28;19931;-75
2022/05/28 07:28:33;;;;;;;;;;;;;;;13.45;51.82;101675.56;5080739;27;19994;-74
2022/05/28 07:30:59;;;;;;;;;;;;;;;13.48;51.99;101672.91;5043160;28;19921;-78
2022/05/28 07:33:27;;;;;;;;;;;;;;;13.49;51.24;101666.75;5024164;28;19917;-78
2022/05/28 07:35:54;;;;;;;;;;;;;;;13.43;51.08;101661.69;5016978;28;20071;-78
2022/05/28 07:38:19;;;;;;;;;;;;;;;13.69;50.29;101664.69;5023481;28;20384;-78
2022/05/28 07:40:45;;;;;;;;;;;;;;;13.63;50.75;101661.31;5024599;28;20043;-78
2022/05/28 07:43:11;;;;;;;;;;;;;;;13.41;52.03;101655.63;5017552;28;19922;-78
2022/05/28 07:45:38;;;;;;;;;;;;;;;13.52;50.84;101666.72;5019512;28;19940;-78
2022/05/28 07:48:03;;;;;;;;;;;;;;;13.38;51.35;101662.63;5019259;28;20063;-78
2022/05/28 07:50:28;;;;;;;;;;;;;;;13.39;51.49;101673.06;5019873;28;20483;-78
2022/05/28 07:52:54;;;;;;;;;;;;;;;13.53;50.47;101659.75;5013346;28;19922;-78
2022/05/28 07:55:19;;;;;;;;;;;;;;;13.72;50.79;101664.63;5027381;28;19936;-78
2022/05/28 07:57:45;;;;;;;;;;;;;;;13.63;50.75;101674.34;5013941;28;20310;-78
2022/05/28 08:00:10;;;;;;;;;;;;;;;13.75;50.42;101672.41;5022538;28;19924;-78
2022/05/28 08:02:35;;;;;;;;;;;;;;;13.74;52.21;101672.41;5022199;28;19917;-78
2022/05/28 08:05:01;;;;;;;;;;;;;;;13.68;51.04;101667.31;5029275;28;20291;-78
2022/05/28 08:07:26;;;;;;;;;;;;;;;13.78;50.90;101666.25;5025979;28;19972;-78
2022/05/28 08:09:51;;;;;;;;;;;;;;;13.80;52.12;101664.47;5024786;28;20426;-78
2022/05/28 08:12:17;;;;;;;;;;;;;;;13.65;50.77;101657.75;5015742;28;19926;-78
2022/05/28 08:14:42;;;;;;;;;;;;;;;13.75;50.70;101663.72;5028207;28;19921;-78
2022/05/28 08:17:08;;;;;;;;;;;;;;;13.73;50.68;101657.63;5031691;28;19927;-78
2022/05/28 08:19:34;;;;;;;;;;;;;;;13.70;50.00;101663.78;5028983;28;20016;-78
2022/05/28 08:24:43;;;;;;;;;;;;;;;13.94;49.37;101662.41;5018541;28;19929;-78
2022/05/28 08:27:08;;;;;;;;;;;;;;;13.88;50.46;101669.56;5035633;28;19921;-78
2022/05/28 08:29:34;;;;;;;;;;;;;;;13.86;48.48;101658.25;5041961;28;19922;-78
2022/05/28 08:31:59;;;;;;;;;;;;;;;13.72;48.83;101664.63;5042780;28;20519;-78
2022/05/28 08:34:24;;;;;;;;;;;;;;;13.93;48.06;101652.88;5038631;28;19966;-78
2022/05/28 08:36:50;;;;;;;;;;;;;;;13.72;48.32;101653.31;5040149;28;19920;-78
2022/05/28 08:39:16;;;;;;;;;;;;;;;13.79;47.95;101654.91;5035179;28;19921;-78
2022/05/28 08:41:48;;;;;;;;;;;;;;;14.04;48.27;101656.13;5022739;28;19925;-78
2022/05/28 08:44:18;;;;;;;;;;;;;;;13.85;48.23;101651.34;5032491;28;19948;-78
2022/05/28 08:46:44;;;;;;;;;;;;;;;13.87;48.69;101660.84;5026733;28;20024;-78
2022/05/28 08:49:12;;;;;;;;;;;;;;;13.95;48.47;101658.06;5021286;28;19928;-78
2022/05/28 08:51:52;;;;;;;;;;;;;;;13.95;48.10;101650.22;5025311;28;19929;-78
2022/05/28 08:54:30;;;;;;;;;;;;;;;13.94;47.99;101653.75;5026385;28;20036;-78
2022/05/28 08:56:57;;;;;;;;;;;;;;;14.02;46.48;101657.06;5021150;28;19960;-79
2022/05/28 08:59:29;;;;;;;;;;;;;;;14.03;46.95;101650.91;5030754;28;19956;-79
2022/05/28 09:01:54;;;;;;;;;;;;;;;13.87;45.10;101641.69;5026573;28;19929;-79
2022/05/28 09:04:22;;;;;;;;;;;;;;;13.93;45.06;101665.94;5028246;28;19979;-79
2022/05/28 09:06:54;;;;;;;;;;;;;;;14.07;45.44;101652.59;5021691;28;19926;-78
2022/05/28 09:09:25;;;;;;;;;;;;;;;14.05;42.57;101647.41;5028753;28;19925;-78
2022/05/28 09:11:58;;;;;;;;;;;;;;;13.99;43.79;101644.06;5025477;28;19917;-78
2022/05/28 09:14:26;;;;;;;;;;;;;;;14.04;44.06;101647.44;5020764;28;19952;-79
2022/05/28 09:16:53;;;;;;;;;;;;;;;14.20;43.85;101641.00;5029338;28;19925;-79
2022/05/28 09:19:32;;;;;;;;;;;;;;;14.27;45.84;101650.41;5016590;28;20345;-78
2022/05/28 09:21:57;;;;;;;;;;;;;;;14.33;47.98;101640.66;5022511;28;20608;-79
2022/05/28 09:24:25;;;;;;;;;;;;;;;14.05;45.57;101639.56;5019892;28;19929;-79
2022/05/28 09:27:05;;;;;;;;;;;;;;;14.21;45.74;101634.84;5020632;28;19921;-78
2022/05/28 09:29:33;;;;;;;;;;;;;;;14.10;46.56;101642.06;5025878;28;19921;-79
2022/05/28 09:32:14;;;;;;;;;;;;;;;14.16;45.61;101640.19;5017459;28;20611;-79
2022/05/28 09:34:49;;;;;;;;;;;;;;;14.13;44.80;101636.78;5025816;28;19925;-79
2022/05/28 09:37:18;;;;;;;;;;;;;;;13.95;44.89;101637.16;5017135;28;20008;-78
2022/05/28 09:39:57;;;;;;;;;;;;;;;14.04;44.12;101634.38;5029841;28;19921;-78
2022/05/28 09:42:26;;;;;;;;;;;;;;;14.20;43.80;101638.38;5024657;28;20384;-78
2022/05/28 09:45:14;;;;;;;;;;;;;;;14.26;43.00;101638.25;5029695;28;19925;-77
2022/05/28 09:47:44;;;;;;;;;;;;;;;14.33;42.89;101637.19;5030419;28;19925;-77
2022/05/28 09:50:17;;;;;;;;;;;;;;;14.37;43.58;101633.63;5028313;28;19931;-78
2022/05/28 09:54:16;;;;;;;;;;;;;;;14.30;42.66;101622.44;5022211;28;19960;-78
2022/05/28 09:55:27;;;;;;;;;;;;;;;14.22;43.20;101639.19;5023384;28;19925;-77
2022/05/28 09:57:56;;;;;;;;;;;;;;;14.28;42.82;101628.59;5023918;28;20386;-78
2022/05/28 10:00:22;;;;;;;;;;;;;;;14.28;43.15;101626.00;5014397;28;20048;-78
2022/05/28 10:05:46;;;;;;;;;;;;;;;14.29;40.96;101617.25;5031319;28;19979;-79
2022/05/28 10:08:14;;;;;;;;;;;;;;;14.37;40.82;101615.31;5026967;28;20559;-74
2022/05/28 10:10:40;;;;;;;;;;;;;;;14.38;43.12;101621.41;5031556;28;20031;-74
2022/05/28 10:13:06;;;;;;;;;;;;;;;14.38;43.44;101617.06;5031590;28;19921;-74
2022/05/28 10:15:33;;;;;;;;;;;;;;;14.48;43.67;101621.16;5026185;28;19932;-74
2022/05/28 10:18:01;;;;;;;;;;;;;;;14.29;43.88;101618.09;5022152;28;19953;-74
2022/05/28 10:20:26;;;;;;;;;;;;;;;14.23;43.42;101615.63;5014976;28;20508;-74
2022/05/28 10:22:54;;;;;;;;;;;;;;;14.21;43.93;101617.41;5026819;28;19965;-78
2022/05/28 10:25:31;;;;;;;;;;;;;;;14.16;42.34;101628.88;5021456;28;20359;-77
2022/05/28 10:27:57;;;;;;;;;;;;;;;14.36;43.57;101604.88;5030283;28;20410;-77
2022/05/28 10:30:24;;;;;;;;;;;;;;;14.38;42.31;101613.56;5015134;28;19921;-74
2022/05/28 10:32:51;;;;;;;;;;;;;;;14.14;41.58;101625.44;5049055;28;20571;-74
2022/05/28 10:35:26;;;;;;;;;;;;;;;14.10;41.75;101619.41;5029215;28;19925;-74
2022/05/28 10:37:52;;;;;;;;;;;;;;;14.25;41.71;101613.84;5019519;28;19932;-74
2022/05/28 10:40:20;;;;;;;;;;;;;;;14.23;41.39;101617.41;5008333;28;20334;-73
2022/05/28 10:42:46;;;;;;;;;;;;;;;14.31;41.96;101612.84;5028122;28;19925;-74
2022/05/28 10:45:14;;;;;;;;;;;;;;;14.39;41.05;101596.97;5028131;28;20279;-78
2022/05/28 10:47:54;;;;;;;;;;;;;;;14.43;39.84;101602.13;5016970;28;19917;-79
2022/05/28 10:50:28;;;;;;;;;;;;;;;14.47;40.26;101613.38;5024213;28;19952;-77
2022/05/28 10:53:20;;;;;;;;;;;;;;;14.50;40.44;101601.06;5033253;28;19917;-76
2022/05/28 10:55:48;;;;;;;;;;;;;;;14.53;41.37;101600.97;5017565;28;19932;-79
2022/05/28 10:58:32;;;;;;;;;;;;;;;14.52;41.84;101595.81;5020809;28;19929;-79
2022/05/28 11:01:01;;;;;;;;;;;;;;;14.49;40.50;101588.91;5024635;28;19952;-79
2022/05/28 11:03:41;;;;;;;;;;;;;;;14.54;41.25;101599.22;5025554;28;19939;-79
2022/05/28 11:06:14;;;;;;;;;;;;;;;14.52;39.22;101586.22;5022672;28;19932;-78
2022/05/28 11:09:01;;;;;;;;;;;;;;;14.53;39.53;101576.63;5021667;28;19922;-79
2022/05/28 11:11:38;;;;;;;;;;;;;;;14.49;38.19;101588.03;5017928;28;19930;-73
2022/05/28 11:14:22;;;;;;;;;;;;;;;14.54;38.66;101584.41;5023261;28;19921;-79
2022/05/28 11:16:50;;;;;;;;;;;;;;;14.57;39.25;101575.63;5022366;28;19925;-79
2022/05/28 11:19:21;;;;;;;;;;;;;;;14.68;39.29;101587.53;5029500;28;19932;-73
2022/05/28 11:21:55;;;;;;;;;;;;;;;14.53;39.45;101579.22;5023203;28;19944;-77
2022/05/28 11:24:41;;;;;;;;;;;;;;;14.42;39.61;101583.84;5018754;28;20450;-77
2022/05/28 11:27:24;;;;;;;;;;;;;;;14.57;39.50;101584.34;5023018;28;19924;-78
2022/05/28 11:29:59;;;;;;;;;;;;;;;14.60;38.50;101580.78;5015741;28;19917;-76
2022/05/28 11:32:30;;;;;;;;;;;;;;;14.61;37.65;101572.06;5018889;28;19932;-77
2022/05/28 11:34:58;;;;;;;;;;;;;;;14.69;39.18;101567.47;5019171;28;19929;-77
2022/05/28 11:37:45;;;;;;;;;;;;;;;14.61;39.04;101578.16;5023296;28;19929;-77
2022/05/28 11:40:15;;;;;;;;;;;;;;;14.57;38.80;101583.47;5017150;28;20401;-77
2022/05/28 11:42:52;;;;;;;;;;;;;;;14.51;38.41;101560.94;5022289;28;19925;-77
2022/05/28 11:45:41;;;;;;;;;;;;;;;14.66;38.25;101563.19;5021465;28;19928;-76
2022/05/28 11:48:19;;;;;;;;;;;;;;;14.71;38.79;101560.47;5021607;28;19926;-77
2022/05/28 11:53:31;;;;;;;;;;;;;;;14.66;36.71;101552.72;5020526;28;19980;-74
2022/05/28 11:56:00;;;;;;;;;;;;;;;14.71;35.37;101547.41;5024167;28;19921;-73
2022/05/28 11:58:27;;;;;;;;;;;;;;;14.66;35.86;101544.88;5020319;28;19925;-74
2022/05/28 12:00:59;;;;;;;;;;;;;;;14.73;35.54;101530.75;5031433;28;20007;-74
2022/05/28 12:03:26;;;;;;;;;;;;;;;14.86;36.53;101540.03;5022429;28;20401;-74
2022/05/28 12:06:04;;;;;;;;;;;;;;;14.91;36.22;101539.06;5025639;28;19963;-73
2022/05/28 12:08:44;;;;;;;;;;;;;;;14.79;34.00;101529.78;5023452;28;19925;-74
2022/05/28 12:11:19;;;;;;;;;;;;;;;14.87;34.53;101519.97;5041437;28;19928;-74
2022/05/28 12:13:49;;;;;;;;;;;;;;;14.88;35.30;101521.69;5019471;28;20377;-74
2022/05/28 12:16:18;;;;;;;;;;;;;;;14.91;35.01;101520.75;5022030;28;19921;-73
2022/05/28 12:18:54;;;;;;;;;;;;;;;14.96;34.80;101516.22;5025975;28;19925;-73
2022/05/28 12:21:27;;;;;;;;;;;;;;;14.91;34.28;101505.91;5032235;28;19932;-74
2022/05/28 12:24:03;;;;;;;;;;;;;;;15.00;34.65;101505.66;5026551;28;19932;-74
2022/05/28 12:29:08;;;;;;;;;;;;;;;14.86;35.10;101515.63;5021818;28;19925;-79
2022/05/28 12:31:34;;;;;;;;;;;;;;;14.79;35.63;101511.47;5027181;28;19925;-79
2022/05/28 12:34:00;;;;;;;;;;;;;;;14.72;34.56;101500.28;5033974;28;19935;-79
2022/05/28 12:36:38;;;;;;;;;;;;;;;14.84;34.97;101502.59;5023511;28;19928;-79
2022/05/28 12:39:05;;;;;;;;;;;;;;;14.96;36.81;101496.16;5031496;28;20408;-79
2022/05/28 12:41:32;;;;;;;;;;;;;;;15.10;36.62;101501.00;5031329;28;19929;-79
2022/05/28 12:44:03;;;;;;;;;;;;;;;15.06;37.29;101496.78;5029429;28;20465;-79
2022/05/28 12:46:38;;;;;;;;;;;;;;;14.98;36.27;101496.13;5023036;28;19963;-79
2022/05/28 12:49:05;;;;;;;;;;;;;;;14.97;36.90;101499.66;5025952;28;19967;-79
2022/05/28 12:51:39;;;;;;;;;;;;;;;14.92;36.75;101504.16;5027906;28;19943;-79